Matrah, Oman
Current Conditions -  °F | °C
As of 7:50 PM on Saturday 25 Oct 2014 (Local Time) from OOMS Reporting Station
Clear Clear  
Wind Chill: 84°   Ceiling: Unl
Heat Index: 87°   Visibility: 6mi
Dew Point: 68°   Wind: 6mph
Humidity: 58%   Direction: 70°ENE
Pressure: 29.85"   Gusts: NA
Location:  23.61°N, 58.54°E
Report Text: OOMS 251550Z 07005KT 9000 NSC 29/20 Q1011 NOSIG
Loading
Personal Weather Stations






























Interactive Weather Map
Tropical Storm Tracking
New forecast layout! Learn more

10-Day Weather Forecast

Advertisements
Track Severe Weather on mobile